Frances Anne — WDE8555 — position and weather

sailwx.info

Track history (hours):
 
Tides and Currents Weather Stations Pressure Air Temp Water Temp Dewpoint Dewpoint Depression Visibility Wind Speed Wind Dir Waves Ship Positions

Frances Anne

Owner: Frances Anne Inc., West Creek, NJ. More information available from US FCC via Universal Licensing System and Coast Guard Vessel Documentation Center.

Last reported at 2014-Oct-30 10:12 UTC. Time now 2014-Oct-31 14:22 UTC.
Position N 39°45' W 071°31'.

Type: Fishing. MMSI: 367406910.

Date/timePositionNaut miles runAvg speedWind from/ knotsBaromVisibWave heightAir tempDewpointWater temp
2014-Oct-30 10:12N 39°45' W 071°31'1 1.4
2014-Oct-30 09:21N 39°46' W 071°30'5 2.6
2014-Oct-30 07:22N 39°44' W 071°24'1 1.2
2014-Oct-30 06:23N 39°45' W 071°24'11 1.8
2014-Oct-30 00:06N 39°48' W 071°38'4 7.0
2014-Oct-29 23:33N 39°46' W 071°42'8 7.1
2014-Oct-29 22:27N 39°40' W 071°49'5 5.0
2014-Oct-29 21:32N 39°37' W 071°53'1 1.3
2014-Oct-29 20:29N 39°38' W 071°52'1 0.9
2014-Oct-29 19:32N 39°37' W 071°51'4 3.9
2014-Oct-29 18:33N 39°39' W 071°46'4 4.0
2014-Oct-29 17:30N 39°41' W 071°41'2 2.0
2014-Oct-29 16:32N 39°43' W 071°40'1 1.4
2014-Oct-29 15:33N 39°44' W 071°39'4 3.6
2014-Oct-29 14:33N 39°46' W 071°35'3 2.9
2014-Oct-29 13:31N 39°47' W 071°32'3 3.3
2014-Oct-29 12:33N 39°49' W 071°28'4 3.3
2014-Oct-29 11:22N 39°49' W 071°23'3 3.8
2014-Oct-29 10:32N 39°51' W 071°21'5 4.8
2014-Oct-29 09:32N 39°55' W 071°17'0 0.3
2014-Oct-29 08:33N 39°55' W 071°16'1 0.9
2014-Oct-29 07:33N 39°54' W 071°17'1 1.0
2014-Oct-29 06:33N 39°54' W 071°18'1 0.9
2014-Oct-29 05:33N 39°53' W 071°19'1 0.9
2014-Oct-29 04:31N 39°52' W 071°20'1 0.9
2014-Oct-29 03:33N 39°52' W 071°20'1 0.9
2014-Oct-29 02:26N 39°51' W 071°21'1 1.1
2014-Oct-29 01:33N 39°50' W 071°22'7 6.8
2014-Oct-29 00:33N 39°48' W 071°31'7 6.8
2014-Oct-28 23:33N 39°44' W 071°38'7 6.7
2014-Oct-28 22:33N 39°40' W 071°44'6 6.4
2014-Oct-28 21:33N 39°36' W 071°51'1 1.4
2014-Oct-28 20:33N 39°36' W 071°53'2 1.9
2014-Oct-28 19:28N 39°35' W 071°55'3 3.5
2014-Oct-28 18:33N 39°32' W 071°56'2 1.8
2014-Oct-28 17:27N 39°30' W 071°57'7 2.2
2014-Oct-28 14:30N 39°25' W 072°03'3 3.6
2014-Oct-28 13:33N 39°29' W 072°03'1 1.0
2014-Oct-28 12:29N 39°29' W 072°04'7 6.9
2014-Oct-28 11:31N 39°30' W 072°12'6 6.7
2014-Oct-28 10:33N 39°30' W 072°21'5 5.4
2014-Oct-28 09:33N 39°31' W 072°28'7 6.8
2014-Oct-28 08:33N 39°33' W 072°36'7 7.1
2014-Oct-28 07:31N 39°34' W 072°46'7 7.4
2014-Oct-28 06:32N 39°35' W 072°55'7 7.2
2014-Oct-28 05:31N 39°37' W 073°04'36 7.1
2014-Oct-28 00:27N 39°43' W 073°50'6 6.9
2014-Oct-27 23:33N 39°45' W 073°58'6 5.9
2014-Oct-27 22:27N 39°46' W 074°07'0 0.0
2014-Oct-27 21:30N 39°46' W 074°07'0 0.0
2014-Oct-27 20:33N 39°46' W 074°07'0 0.0
2014-Oct-27 19:24N 39°46' W 074°07'0 0.0
2014-Oct-27 18:30N 39°46' W 074°07'0 0.0
2014-Oct-27 17:33N 39°46' W 074°07'0 0.0
2014-Oct-27 16:18N 39°46' W 074°07'0 0.0
2014-Oct-27 15:30N 39°46' W 074°07'0 0.0
2014-Oct-27 14:21N 39°46' W 074°07'0 0.0
2014-Oct-27 13:27N 39°46' W 074°07'0 0.0
2014-Oct-27 12:33N 39°46' W 074°07'0 0.1
2014-Oct-27 11:33N 39°46' W 074°07'0 0.0
2014-Oct-27 10:15N 39°46' W 074°07'0 0.0
2014-Oct-27 09:33N 39°46' W 074°07'0 0.0
2014-Oct-27 08:33N 39°46' W 074°07'0 0.0
2014-Oct-27 07:33N 39°46' W 074°07'0 0.0
2014-Oct-27 06:33N 39°46' W 074°07'0 0.0
2014-Oct-27 05:30N 39°46' W 074°07'0 0.0
2014-Oct-27 04:24N 39°46' W 074°07'0 0.0
2014-Oct-27 03:30N 39°46' W 074°07'0 0.0
2014-Oct-27 02:30N 39°46' W 074°07'0 0.0
2014-Oct-27 01:30N 39°46' W 074°07'0 0.0
2014-Oct-27 00:24N 39°46' W 074°07'0 0.0
2014-Oct-26 23:24N 39°46' W 074°07'0 0.0
2014-Oct-26 22:21N 39°46' W 074°07'0 0.0
2014-Oct-26 21:33N 39°46' W 074°07'0 0.0
2014-Oct-26 20:24N 39°46' W 074°07'0 0.0
2014-Oct-26 19:12N 39°46' W 074°07'0 0.0
2014-Oct-26 18:30N 39°46' W 074°07'0 0.0
2014-Oct-26 17:30N 39°46' W 074°07'0 0.0
2014-Oct-26 16:21N 39°46' W 074°07'0 0.0
2014-Oct-26 15:24N 39°46' W 074°07'0 0.0
2014-Oct-26 14:30N 39°46' W 074°07'0 0.0
2014-Oct-26 13:30N 39°46' W 074°06'0 0.0
2014-Oct-26 12:33N 39°46' W 074°07'0 0.0
2014-Oct-26 11:33N 39°46' W 074°07'0 0.0
2014-Oct-26 10:33N 39°46' W 074°07'0 0.0
2014-Oct-26 09:21N 39°46' W 074°07'0 0.0
2014-Oct-26 08:27N 39°46' W 074°07'0 0.0
2014-Oct-26 06:33N 39°46' W 074°07'0 0.0
2014-Oct-26 05:30N 39°46' W 074°07'0 0.0
2014-Oct-26 04:30N 39°46' W 074°06'0 0.0
2014-Oct-26 03:30N 39°46' W 074°07'0 0.0
2014-Oct-26 02:30N 39°46' W 074°07'0 0.0
2014-Oct-26 01:24N 39°46' W 074°07'0 0.0
2014-Oct-26 00:30N 39°46' W 074°07'0 0.0
2014-Oct-25 23:30N 39°46' W 074°07'0 0.0
2014-Oct-25 22:24N 39°46' W 074°07'0 0.0
2014-Oct-25 21:12N 39°46' W 074°07'0 0.0
2014-Oct-25 20:30N 39°46' W 074°07'0 0.0
2014-Oct-25 19:30N 39°46' W 074°07'0 0.0
2014-Oct-25 18:30N 39°46' W 074°07'0 0.0
2014-Oct-25 17:30N 39°46' W 074°07'0 0.0
2014-Oct-25 16:24N 39°46' W 074°07'0 0.1
2014-Oct-25 15:05N 39°46' W 074°07'0 0.0
2014-Oct-25 14:29N 39°46' W 074°07'0 0.1
2014-Oct-25 13:27N 39°46' W 074°07'0 0.0
2014-Oct-25 12:21N 39°46' W 074°07'0 0.0
2014-Oct-25 11:33N 39°46' W 074°07'0 0.0
2014-Oct-25 10:33N 39°46' W 074°07'0 0.0
2014-Oct-25 09:33N 39°46' W 074°07'0 0.0
2014-Oct-25 08:33N 39°46' W 074°07'0 0.0
2014-Oct-25 07:24N 39°46' W 074°07'0 0.0
2014-Oct-25 06:18N 39°46' W 074°07'0 0.0
2014-Oct-25 05:30N 39°46' W 074°07'0 0.0
2014-Oct-25 04:24N 39°46' W 074°07'0 0.0
2014-Oct-25 03:30N 39°46' W 074°07'0 0.0
2014-Oct-25 02:24N 39°46' W 074°07'0 0.0
2014-Oct-25 01:30N 39°46' W 074°07'0 0.0
2014-Oct-25 00:30N 39°46' W 074°07'0 0.0
2014-Oct-24 23:30N 39°46' W 074°07'0 0.0
2014-Oct-24 22:33N 39°46' W 074°07'0 0.0
2014-Oct-24 21:30N 39°46' W 074°07'0 0.0
2014-Oct-24 20:27N 39°46' W 074°07'0 0.0
2014-Oct-24 19:33N 39°46' W 074°07'0 0.0
2014-Oct-24 18:30N 39°46' W 074°07'0 0.0
2014-Oct-24 17:12N 39°46' W 074°07'0 0.0
2014-Oct-24 16:30N 39°46' W 074°06'0 0.0
2014-Oct-24 15:30N 39°46' W 074°07'0 0.0
2014-Oct-24 14:32N 39°46' W 074°07'0 0.0
2014-Oct-24 13:30N 39°46' W 074°07'0 0.0
2014-Oct-24 12:30N 39°46' W 074°07'0 0.0
2014-Oct-24 04:30N 39°46' W 074°07'0 0.0
2014-Oct-24 03:24N 39°46' W 074°07'0 0.0
2014-Oct-24 02:33N 39°46' W 074°07'0 0.0
2014-Oct-23 15:15N 39°46' W 074°07'0 0.0
2014-Oct-23 14:33N 39°46' W 074°07'0 0.0
2014-Oct-23 13:27N 39°46' W 074°07'0 0.0
2014-Oct-23 12:33N 39°46' W 074°07'0 0.0
2014-Oct-22 15:09N 39°46' W 074°07'0 0.0
2014-Oct-22 09:33N 39°46' W 074°07'0 0.0
2014-Oct-22 08:33N 39°46' W 074°07'0 0.0
2014-Oct-22 07:24N 39°46' W 074°07'0 0.0
2014-Oct-22 06:24N 39°46' W 074°07'0 0.0
2014-Oct-22 05:30N 39°46' W 074°07'0 0.0
2014-Oct-22 04:27N 39°46' W 074°07'0 0.0
2014-Oct-22 03:24N 39°46' W 074°07'0 0.0
2014-Oct-22 02:30N 39°46' W 074°07'0 0.0
2014-Oct-22 01:30N 39°46' W 074°07'0 0.0
2014-Oct-22 00:33N 39°46' W 074°07'0 0.0
2014-Oct-21 23:24N 39°46' W 074°07'0 0.0
2014-Oct-21 22:30N 39°46' W 074°07'0 0.0
2014-Oct-21 21:27N 39°46' W 074°07'0 0.0
2014-Oct-21 20:30N 39°46' W 074°07'0 0.0
2014-Oct-21 19:12N 39°46' W 074°07'0 0.0
2014-Oct-21 18:09N 39°46' W 074°07'0 0.0
2014-Oct-21 16:30N 39°46' W 074°07'0 0.0
2014-Oct-21 15:30N 39°46' W 074°07'0 0.0
2014-Oct-21 14:24N 39°46' W 074°07'0 0.0
2014-Oct-21 13:30N 39°46' W 074°07'0 0.0
2014-Oct-21 12:30N 39°46' W 074°07'0 0.0
2014-Oct-21 11:30N 39°46' W 074°07'0 0.0
2014-Oct-21 10:24N 39°46' W 074°07'0 0.0
2014-Oct-21 09:24N 39°46' W 074°07'0 0.0
2014-Oct-21 08:30N 39°46' W 074°07'0 0.0
2014-Oct-21 07:21N 39°46' W 074°07'0 0.0
2014-Oct-21 06:18N 39°46' W 074°07'0 0.0
2014-Oct-21 05:24N 39°46' W 074°07'0 0.0
2014-Oct-21 04:30N 39°46' W 074°07'0 0.0
2014-Oct-21 03:18N 39°46' W 074°07'0 0.0
2014-Oct-21 02:18N 39°46' W 074°07'0 0.0
2014-Oct-21 01:18N 39°46' W 074°07'0 0.0
2014-Oct-21 00:27N 39°46' W 074°07'0 0.0
2014-Oct-20 23:33N 39°46' W 074°07'0 0.0
2014-Oct-20 22:15N 39°46' W 074°07'0 0.0
2014-Oct-20 21:33N 39°46' W 074°07'0 0.0
2014-Oct-20 20:30N 39°46' W 074°07'0 0.0
2014-Oct-20 19:33N 39°46' W 074°07'0 0.0
2014-Oct-20 18:33N 39°46' W 074°07'0 0.0
2014-Oct-20 17:33N 39°46' W 074°07'0 0.0
2014-Oct-20 16:15N 39°46' W 074°07'0 0.0
2014-Oct-20 15:33N 39°46' W 074°07'0 0.1
2014-Oct-20 14:31N 39°46' W 074°07'0 0.0
2014-Oct-20 13:31N 39°46' W 074°07'0 0.1
2014-Oct-20 12:32N 39°46' W 074°07'0 0.0
2014-Oct-20 11:32N 39°46' W 074°07'  
Track history (hours):
 
Tides and Currents Weather Stations Pressure Air Temp Water Temp Dewpoint Dewpoint Depression Visibility Wind Speed Wind Dir Waves Ship Positions

Frances Anne

Owner: Frances Anne Inc., West Creek, NJ. More information available from US FCC via Universal Licensing System and Coast Guard Vessel Documentation Center.

Last reported at 2014-Oct-30 10:12 UTC. Time now 2014-Oct-31 14:22 UTC.
Position N 39°45' W 071°31'.

Type: Fishing. MMSI: 367406910.

Date/timePositionNaut miles runAvg speedWind from/ knotsBaromVisibWave heightAir tempDewpointWater temp
2014-Oct-30 10:12N 39°45' W 071°31'1 1.4
2014-Oct-30 09:21N 39°46' W 071°30'5 2.6
2014-Oct-30 07:22N 39°44' W 071°24'1 1.2
2014-Oct-30 06:23N 39°45' W 071°24'11 1.8
2014-Oct-30 00:06N 39°48' W 071°38'4 7.0
2014-Oct-29 23:33N 39°46' W 071°42'8 7.1
2014-Oct-29 22:27N 39°40' W 071°49'5 5.0
2014-Oct-29 21:32N 39°37' W 071°53'1 1.3
2014-Oct-29 20:29N 39°38' W 071°52'1 0.9
2014-Oct-29 19:32N 39°37' W 071°51'4 3.9
2014-Oct-29 18:33N 39°39' W 071°46'4 4.0
2014-Oct-29 17:30N 39°41' W 071°41'2 2.0
2014-Oct-29 16:32N 39°43' W 071°40'1 1.4
2014-Oct-29 15:33N 39°44' W 071°39'4 3.6
2014-Oct-29 14:33N 39°46' W 071°35'3 2.9
2014-Oct-29 13:31N 39°47' W 071°32'3 3.3
2014-Oct-29 12:33N 39°49' W 071°28'4 3.3
2014-Oct-29 11:22N 39°49' W 071°23'3 3.8
2014-Oct-29 10:32N 39°51' W 071°21'5 4.8
2014-Oct-29 09:32N 39°55' W 071°17'0 0.3
2014-Oct-29 08:33N 39°55' W 071°16'1 0.9
2014-Oct-29 07:33N 39°54' W 071°17'1 1.0
2014-Oct-29 06:33N 39°54' W 071°18'1 0.9
2014-Oct-29 05:33N 39°53' W 071°19'1 0.9
2014-Oct-29 04:31N 39°52' W 071°20'1 0.9
2014-Oct-29 03:33N 39°52' W 071°20'1 0.9
2014-Oct-29 02:26N 39°51' W 071°21'1 1.1
2014-Oct-29 01:33N 39°50' W 071°22'7 6.8
2014-Oct-29 00:33N 39°48' W 071°31'7 6.8
2014-Oct-28 23:33N 39°44' W 071°38'7 6.7
2014-Oct-28 22:33N 39°40' W 071°44'6 6.4
2014-Oct-28 21:33N 39°36' W 071°51'1 1.4
2014-Oct-28 20:33N 39°36' W 071°53'2 1.9
2014-Oct-28 19:28N 39°35' W 071°55'3 3.5
2014-Oct-28 18:33N 39°32' W 071°56'2 1.8
2014-Oct-28 17:27N 39°30' W 071°57'7 2.2
2014-Oct-28 14:30N 39°25' W 072°03'3 3.6
2014-Oct-28 13:33N 39°29' W 072°03'1 1.0
2014-Oct-28 12:29N 39°29' W 072°04'7 6.9
2014-Oct-28 11:31N 39°30' W 072°12'6 6.7
2014-Oct-28 10:33N 39°30' W 072°21'5 5.4
2014-Oct-28 09:33N 39°31' W 072°28'7 6.8
2014-Oct-28 08:33N 39°33' W 072°36'7 7.1
2014-Oct-28 07:31N 39°34' W 072°46'7 7.4
2014-Oct-28 06:32N 39°35' W 072°55'7 7.2
2014-Oct-28 05:31N 39°37' W 073°04'36 7.1
2014-Oct-28 00:27N 39°43' W 073°50'6 6.9
2014-Oct-27 23:33N 39°45' W 073°58'6 5.9
2014-Oct-27 22:27N 39°46' W 074°07'0 0.0
2014-Oct-27 21:30N 39°46' W 074°07'0 0.0
2014-Oct-27 20:33N 39°46' W 074°07'0 0.0
2014-Oct-27 19:24N 39°46' W 074°07'0 0.0
2014-Oct-27 18:30N 39°46' W 074°07'0 0.0
2014-Oct-27 17:33N 39°46' W 074°07'0 0.0
2014-Oct-27 16:18N 39°46' W 074°07'0 0.0
2014-Oct-27 15:30N 39°46' W 074°07'0 0.0
2014-Oct-27 14:21N 39°46' W 074°07'0 0.0
2014-Oct-27 13:27N 39°46' W 074°07'0 0.0
2014-Oct-27 12:33N 39°46' W 074°07'0 0.1
2014-Oct-27 11:33N 39°46' W 074°07'0 0.0
2014-Oct-27 10:15N 39°46' W 074°07'0 0.0
2014-Oct-27 09:33N 39°46' W 074°07'0 0.0
2014-Oct-27 08:33N 39°46' W 074°07'0 0.0
2014-Oct-27 07:33N 39°46' W 074°07'0 0.0
2014-Oct-27 06:33N 39°46' W 074°07'0 0.0
2014-Oct-27 05:30N 39°46' W 074°07'0 0.0
2014-Oct-27 04:24N 39°46' W 074°07'0 0.0
2014-Oct-27 03:30N 39°46' W 074°07'0 0.0
2014-Oct-27 02:30N 39°46' W 074°07'0 0.0
2014-Oct-27 01:30N 39°46' W 074°07'0 0.0
2014-Oct-27 00:24N 39°46' W 074°07'0 0.0
2014-Oct-26 23:24N 39°46' W 074°07'0 0.0
2014-Oct-26 22:21N 39°46' W 074°07'0 0.0
2014-Oct-26 21:33N 39°46' W 074°07'0 0.0
2014-Oct-26 20:24N 39°46' W 074°07'0 0.0
2014-Oct-26 19:12N 39°46' W 074°07'0 0.0
2014-Oct-26 18:30N 39°46' W 074°07'0 0.0
2014-Oct-26 17:30N 39°46' W 074°07'0 0.0
2014-Oct-26 16:21N 39°46' W 074°07'0 0.0
2014-Oct-26 15:24N 39°46' W 074°07'0 0.0
2014-Oct-26 14:30N 39°46' W 074°07'0 0.0
2014-Oct-26 13:30N 39°46' W 074°06'0 0.0
2014-Oct-26 12:33N 39°46' W 074°07'0 0.0
2014-Oct-26 11:33N 39°46' W 074°07'0 0.0
2014-Oct-26 10:33N 39°46' W 074°07'0 0.0
2014-Oct-26 09:21N 39°46' W 074°07'0 0.0
2014-Oct-26 08:27N 39°46' W 074°07'0 0.0
2014-Oct-26 06:33N 39°46' W 074°07'0 0.0
2014-Oct-26 05:30N 39°46' W 074°07'0 0.0
2014-Oct-26 04:30N 39°46' W 074°06'0 0.0
2014-Oct-26 03:30N 39°46' W 074°07'0 0.0
2014-Oct-26 02:30N 39°46' W 074°07'0 0.0
2014-Oct-26 01:24N 39°46' W 074°07'0 0.0
2014-Oct-26 00:30N 39°46' W 074°07'0 0.0
2014-Oct-25 23:30N 39°46' W 074°07'0 0.0
2014-Oct-25 22:24N 39°46' W 074°07'0 0.0
2014-Oct-25 21:12N 39°46' W 074°07'0 0.0
2014-Oct-25 20:30N 39°46' W 074°07'0 0.0
2014-Oct-25 19:30N 39°46' W 074°07'0 0.0
2014-Oct-25 18:30N 39°46' W 074°07'0 0.0
2014-Oct-25 17:30N 39°46' W 074°07'0 0.0
2014-Oct-25 16:24N 39°46' W 074°07'0 0.1
2014-Oct-25 15:05N 39°46' W 074°07'0 0.0
2014-Oct-25 14:29N 39°46' W 074°07'0 0.1
2014-Oct-25 13:27N 39°46' W 074°07'0 0.0
2014-Oct-25 12:21N 39°46' W 074°07'0 0.0
2014-Oct-25 11:33N 39°46' W 074°07'0 0.0
2014-Oct-25 10:33N 39°46' W 074°07'0 0.0
2014-Oct-25 09:33N 39°46' W 074°07'0 0.0
2014-Oct-25 08:33N 39°46' W 074°07'0 0.0
2014-Oct-25 07:24N 39°46' W 074°07'0 0.0
2014-Oct-25 06:18N 39°46' W 074°07'0 0.0
2014-Oct-25 05:30N 39°46' W 074°07'0 0.0
2014-Oct-25 04:24N 39°46' W 074°07'0 0.0
2014-Oct-25 03:30N 39°46' W 074°07'0 0.0
2014-Oct-25 02:24N 39°46' W 074°07'0 0.0
2014-Oct-25 01:30N 39°46' W 074°07'0 0.0
2014-Oct-25 00:30N 39°46' W 074°07'0 0.0
2014-Oct-24 23:30N 39°46' W 074°07'0 0.0
2014-Oct-24 22:33N 39°46' W 074°07'0 0.0
2014-Oct-24 21:30N 39°46' W 074°07'0 0.0
2014-Oct-24 20:27N 39°46' W 074°07'0 0.0
2014-Oct-24 19:33N 39°46' W 074°07'0 0.0
2014-Oct-24 18:30N 39°46' W 074°07'0 0.0
2014-Oct-24 17:12N 39°46' W 074°07'0 0.0
2014-Oct-24 16:30N 39°46' W 074°06'0 0.0
2014-Oct-24 15:30N 39°46' W 074°07'0 0.0
2014-Oct-24 14:32N 39°46' W 074°07'0 0.0
2014-Oct-24 13:30N 39°46' W 074°07'0 0.0
2014-Oct-24 12:30N 39°46' W 074°07'0 0.0
2014-Oct-24 04:30N 39°46' W 074°07'0 0.0
2014-Oct-24 03:24N 39°46' W 074°07'0 0.0
2014-Oct-24 02:33N 39°46' W 074°07'0 0.0
2014-Oct-23 15:15N 39°46' W 074°07'0 0.0
2014-Oct-23 14:33N 39°46' W 074°07'0 0.0
2014-Oct-23 13:27N 39°46' W 074°07'0 0.0
2014-Oct-23 12:33N 39°46' W 074°07'0 0.0
2014-Oct-22 15:09N 39°46' W 074°07'0 0.0
2014-Oct-22 09:33N 39°46' W 074°07'0 0.0
2014-Oct-22 08:33N 39°46' W 074°07'0 0.0
2014-Oct-22 07:24N 39°46' W 074°07'0 0.0
2014-Oct-22 06:24N 39°46' W 074°07'0 0.0
2014-Oct-22 05:30N 39°46' W 074°07'0 0.0
2014-Oct-22 04:27N 39°46' W 074°07'0 0.0
2014-Oct-22 03:24N 39°46' W 074°07'0 0.0
2014-Oct-22 02:30N 39°46' W 074°07'0 0.0
2014-Oct-22 01:30N 39°46' W 074°07'0 0.0
2014-Oct-22 00:33N 39°46' W 074°07'0 0.0
2014-Oct-21 23:24N 39°46' W 074°07'0 0.0
2014-Oct-21 22:30N 39°46' W 074°07'0 0.0
2014-Oct-21 21:27N 39°46' W 074°07'0 0.0
2014-Oct-21 20:30N 39°46' W 074°07'0 0.0
2014-Oct-21 19:12N 39°46' W 074°07'0 0.0
2014-Oct-21 18:09N 39°46' W 074°07'0 0.0
2014-Oct-21 16:30N 39°46' W 074°07'0 0.0
2014-Oct-21 15:30N 39°46' W 074°07'0 0.0
2014-Oct-21 14:24N 39°46' W 074°07'0 0.0
2014-Oct-21 13:30N 39°46' W 074°07'0 0.0
2014-Oct-21 12:30N 39°46' W 074°07'0 0.0
2014-Oct-21 11:30N 39°46' W 074°07'0 0.0
2014-Oct-21 10:24N 39°46' W 074°07'0 0.0
2014-Oct-21 09:24N 39°46' W 074°07'0 0.0
2014-Oct-21 08:30N 39°46' W 074°07'0 0.0
2014-Oct-21 07:21N 39°46' W 074°07'0 0.0
2014-Oct-21 06:18N 39°46' W 074°07'0 0.0
2014-Oct-21 05:24N 39°46' W 074°07'0 0.0
2014-Oct-21 04:30N 39°46' W 074°07'0 0.0
2014-Oct-21 03:18N 39°46' W 074°07'0 0.0
2014-Oct-21 02:18N 39°46' W 074°07'0 0.0
2014-Oct-21 01:18N 39°46' W 074°07'0 0.0
2014-Oct-21 00:27N 39°46' W 074°07'0 0.0
2014-Oct-20 23:33N 39°46' W 074°07'0 0.0
2014-Oct-20 22:15N 39°46' W 074°07'0 0.0
2014-Oct-20 21:33N 39°46' W 074°07'0 0.0
2014-Oct-20 20:30N 39°46' W 074°07'0 0.0
2014-Oct-20 19:33N 39°46' W 074°07'0 0.0
2014-Oct-20 18:33N 39°46' W 074°07'0 0.0
2014-Oct-20 17:33N 39°46' W 074°07'0 0.0
2014-Oct-20 16:15N 39°46' W 074°07'0 0.0
2014-Oct-20 15:33N 39°46' W 074°07'0 0.1
2014-Oct-20 14:31N 39°46' W 074°07'0 0.0
2014-Oct-20 13:31N 39°46' W 074°07'0 0.1
2014-Oct-20 12:32N 39°46' W 074°07'0 0.0
2014-Oct-20 11:32N 39°46' W 074°07'  

Dump ship's entire track history